Time;durP1;ratioP1;P1;durP2;ratioP2;P2;SDS_P1;SDS_P2;PMS_P1;PMS_P2;Temp;Humidity;BMP_temperature;BMP_pressure;BME280_temperature;BME280_humidity;BME280_pressure;Samples;Min_cycle;Max_cycle;Signal;HPM_P1;HPM_P2
2022/07/30 00:00:30;;;;;;;5.05;4.55;;;;;;;19.31;81.60;98426.05;1617096;88;26583;-56
2022/07/30 00:02:56;;;;;;;6.03;4.92;;;;;;;19.26;81.74;98430.53;1617158;88;25713;-59
2022/07/30 00:05:23;;;;;;;7.00;4.35;;;;;;;19.22;81.74;98426.92;1616979;88;27617;-57
2022/07/30 00:07:49;;;;;;;4.60;3.92;;;;;;;19.25;81.58;98426.17;1616789;88;25450;-54
2022/07/30 00:10:15;;;;;;;4.75;4.35;;;;;;;19.25;81.63;98428.14;1616755;88;25676;-57
2022/07/30 00:12:42;;;;;;;4.70;4.25;;;;;;;19.23;81.50;98429.91;1616720;88;27831;-53
2022/07/30 00:15:09;;;;;;;4.58;4.03;;;;;;;19.26;81.34;98432.53;1617234;88;25627;-51
2022/07/30 00:17:35;;;;;;;4.50;4.10;;;;;;;19.28;81.30;98425.99;1617056;88;27651;-53
2022/07/30 00:20:01;;;;;;;5.15;4.42;;;;;;;19.31;81.18;98432.18;1617238;88;25612;-53
2022/07/30 00:22:27;;;;;;;5.33;3.90;;;;;;;19.31;81.10;98434.95;1617572;88;25534;-53
2022/07/30 00:24:53;;;;;;;5.62;4.22;;;;;;;19.33;81.06;98429.02;1616974;88;25653;-53
2022/07/30 00:27:20;;;;;;;6.62;4.60;;;;;;;19.29;81.02;98424.83;1617133;88;25616;-52
2022/07/30 00:29:46;;;;;;;6.28;5.40;;;;;;;19.24;81.30;98414.05;1616779;88;27397;-50
2022/07/30 00:32:12;;;;;;;5.87;4.95;;;;;;;19.17;81.60;98407.83;1616935;88;25932;-52
2022/07/30 00:34:38;;;;;;;7.20;4.53;;;;;;;19.17;81.44;98406.44;1617014;88;25732;-52
2022/07/30 00:37:05;;;;;;;6.05;4.70;;;;;;;19.15;81.44;98397.10;1617048;88;26537;-53
2022/07/30 00:39:31;;;;;;;4.50;4.10;;;;;;;19.18;81.54;98396.34;1617145;88;25712;-53
2022/07/30 00:42:03;;;;;;;5.53;4.20;;;;;;;19.22;81.48;98401.11;1616875;88;27552;-51
2022/07/30 00:44:29;;;;;;;4.45;3.95;;;;;;;19.17;81.76;98386.39;1616867;88;25644;-62
2022/07/30 00:46:56;;;;;;;6.10;4.33;;;;;;;19.14;81.57;98384.98;1617014;88;25648;-55
2022/07/30 00:49:23;;;;;;;5.35;4.10;;;;;;;19.10;81.55;98382.73;1616726;88;25815;-60
2022/07/30 00:51:50;;;;;;;4.20;3.80;;;;;;;19.12;81.67;98370.66;1617149;88;25495;-57
2022/07/30 00:54:17;;;;;;;4.37;3.98;;;;;;;19.05;81.99;98365.20;1617022;88;27325;-58
2022/07/30 00:56:44;;;;;;;5.15;3.85;;;;;;;19.04;81.50;98362.22;1616656;88;25459;-53
2022/07/30 00:59:10;;;;;;;6.53;3.85;;;;;;;18.99;81.66;98348.66;1614525;88;25668;-56
2022/07/30 01:01:36;;;;;;;5.15;3.33;;;;;;;18.96;81.63;98336.92;1616416;88;25728;-57
2022/07/30 01:04:03;;;;;;;5.30;3.95;;;;;;;18.92;81.73;98341.06;1616598;88;25482;-51
2022/07/30 01:06:30;;;;;;;5.65;3.77;;;;;;;18.94;81.49;98335.91;1616861;88;27778;-53
2022/07/30 01:09:05;;;;;;;4.87;4.08;;;;;;;18.95;81.65;98332.56;1616538;88;25502;-58
2022/07/30 01:11:38;;;;;;;6.00;4.00;;;;;;;18.93;81.83;98327.96;1616001;88;25518;-56
2022/07/30 01:14:12;;;;;;;6.05;3.90;;;;;;;18.88;81.97;98326.93;1616722;88;25962;-58
2022/07/30 01:16:43;;;;;;;9.28;4.75;;;;;;;18.87;81.76;98335.02;1616813;88;25440;-61
2022/07/30 01:22:23;;;;;;;5.90;4.15;;;;;;;18.81;81.97;98331.21;1616749;88;25605;-57
2022/07/30 01:25:25;;;;;;;5.60;4.17;;;;;;;18.85;81.86;98332.63;1568753;91;25668;-56
2022/07/30 01:28:05;;;;;;;6.97;4.40;;;;;;;18.88;81.65;98331.87;1569191;91;25783;-58
2022/07/30 01:30:43;;;;;;;7.10;5.33;;;;;;;18.92;81.62;98337.48;1569553;91;25528;-59
2022/07/30 01:33:19;;;;;;;6.58;5.60;;;;;;;18.93;81.56;98347.40;1569700;91;27665;-58
2022/07/30 01:35:47;;;;;;;7.12;5.92;;;;;;;18.96;81.38;98330.56;1569715;91;25888;-55
2022/07/30 01:38:18;;;;;;;6.83;5.75;;;;;;;18.96;81.27;98331.37;1569901;91;25909;-56
2022/07/30 01:40:45;;;;;;;5.53;4.40;;;;;;;19.00;81.27;98346.70;1569934;91;25696;-49
2022/07/30 01:43:13;;;;;;;6.33;4.87;;;;;;;19.04;81.15;98350.30;1569655;91;25829;-52
2022/07/30 01:45:40;;;;;;;6.80;5.37;;;;;;;19.07;80.93;98338.44;1569552;91;29487;-51
2022/07/30 01:48:09;;;;;;;5.25;4.75;;;;;;;19.02;80.90;98338.19;1569647;91;25520;-51
2022/07/30 01:50:36;;;;;;;11.10;5.10;;;;;;;19.04;81.05;98339.20;1569898;91;25759;-51
2022/07/30 01:53:03;;;;;;;5.20;4.70;;;;;;;19.07;80.83;98339.83;1569861;91;25906;-51
2022/07/30 01:55:38;;;;;;;7.10;5.00;;;;;;;19.10;80.71;98329.96;1569581;91;25755;-49
2022/07/30 01:58:07;;;;;;;6.65;4.87;;;;;;;19.10;80.61;98339.10;1569921;91;27447;-51
2022/07/30 02:00:37;;;;;;;5.97;4.67;;;;;;;19.05;80.76;98336.05;1569735;91;25868;-50
2022/07/30 02:03:07;;;;;;;5.58;4.58;;;;;;;19.06;80.62;98332.08;1614110;88;25783;-50
2022/07/30 02:05:35;;;;;;;5.78;4.60;;;;;;;19.06;80.61;98327.91;1616443;88;25691;-53
2022/07/30 02:08:25;;;;;;;6.42;4.40;;;;;;;19.10;80.53;98329.96;1616680;88;25474;-56
2022/07/30 02:11:05;;;;;;;5.47;4.53;;;;;;;19.09;80.48;98327.80;1617328;88;28149;-55
2022/07/30 02:13:33;;;;;;;7.30;4.67;;;;;;;19.14;80.40;98327.44;1616880;88;25703;-59
2022/07/30 02:16:11;;;;;;;6.37;5.08;;;;;;;19.14;80.43;98325.27;1616818;88;25458;-55
2022/07/30 02:18:49;;;;;;;5.20;4.50;;;;;;;19.11;80.28;98332.97;1616188;88;25742;-61
2022/07/30 02:21:18;;;;;;;6.90;4.80;;;;;;;19.10;80.33;98329.96;1616813;88;25685;-60
2022/07/30 02:23:48;;;;;;;6.17;4.97;;;;;;;19.08;80.31;98338.67;1617011;88;27371;-53
2022/07/30 02:26:21;;;;;;;5.08;4.58;;;;;;;19.13;80.22;98341.13;1616397;88;25438;-53
2022/07/30 02:28:53;;;;;;;5.37;4.60;;;;;;;19.09;80.30;98339.48;1616384;88;25510;-54
2022/07/30 02:31:23;;;;;;;7.25;4.33;;;;;;;19.13;80.49;98343.09;1616690;88;26372;-54
2022/07/30 02:33:54;;;;;;;5.47;4.58;;;;;;;19.18;80.27;98337.20;1617097;88;25455;-51
2022/07/30 02:36:20;;;;;;;;;;;;;;;19.20;79.99;98334.05;1619156;88;27408;-53
2022/07/30 02:38:49;;;;;;;5.97;4.62;;;;;;;19.24;80.00;98333.48;1616567;88;25706;-52
2022/07/30 02:41:22;;;;;;;5.03;4.53;;;;;;;19.21;79.74;98331.47;1616064;88;25644;-58
2022/07/30 02:43:51;;;;;;;6.28;5.10;;;;;;;19.17;79.84;98328.67;1616656;88;25764;-58
2022/07/30 02:46:19;;;;;;;5.65;4.90;;;;;;;19.09;80.04;98327.80;1616412;88;25673;-58
2022/07/30 02:48:46;;;;;;;5.22;4.62;;;;;;;19.05;80.18;98322.16;1616568;88;28950;-55
2022/07/30 02:51:16;;;;;;;6.37;4.87;;;;;;;19.07;80.19;98316.23;1614530;88;25711;-57
2022/07/30 02:53:48;;;;;;;7.12;5.22;;;;;;;19.11;80.04;98314.31;1598299;88;25760;-57
2022/07/30 02:56:17;;;;;;;8.40;5.97;;;;;;;19.03;80.23;98310.63;1618340;88;25932;-61
2022/07/30 02:58:45;;;;;;;10.53;6.70;;;;;;;18.94;80.50;98300.40;1619015;88;25443;-55
2022/07/30 03:01:14;;;;;;;8.05;6.10;;;;;;;18.96;80.66;98298.63;1618400;88;27426;-59
2022/07/30 03:03:43;;;;;;;6.97;5.55;;;;;;;18.92;80.44;98299.42;1618843;88;25703;-56
2022/07/30 03:06:12;;;;;;;7.12;5.72;;;;;;;18.92;80.62;98306.36;1619229;88;25624;-52
2022/07/30 03:08:41;;;;;;;7.33;5.50;;;;;;;18.88;80.74;98311.05;1618741;88;25754;-53
2022/07/30 03:11:10;;;;;;;6.72;5.12;;;;;;;18.84;80.99;98302.47;1618650;88;25596;-54
2022/07/30 03:13:36;;;;;;;8.78;5.30;;;;;;;18.77;81.05;98300.42;1618529;88;27484;-51
2022/07/30 03:16:06;;;;;;;5.37;4.08;;;;;;;18.75;81.08;98292.48;1618293;88;27207;-51
2022/07/30 03:18:36;;;;;;;5.45;4.80;;;;;;;18.74;81.53;98292.85;1618951;88;25704;-50
2022/07/30 03:21:06;;;;;;;7.35;5.30;;;;;;;18.70;81.39;98290.02;1618863;88;25823;-54
2022/07/30 03:23:36;;;;;;;5.47;4.67;;;;;;;18.66;81.43;98298.91;1618776;88;25720;-50
2022/07/30 03:26:07;;;;;;;7.25;5.20;;;;;;;18.61;81.95;98306.97;1618557;88;27426;-53
2022/07/30 03:28:39;;;;;;;6.42;5.10;;;;;;;18.60;81.78;98304.57;1618858;88;25471;-53
2022/07/30 03:31:06;;;;;;;8.13;5.40;;;;;;;18.59;81.74;98299.59;1618448;88;25811;-59
2022/07/30 03:33:35;;;;;;;8.78;5.58;;;;;;;18.65;81.60;98311.19;1616737;88;25541;-60
2022/07/30 03:36:03;;;;;;;7.45;5.55;;;;;;;18.69;81.45;98314.19;1618616;88;25689;-58
2022/07/30 03:38:31;;;;;;;6.28;5.10;;;;;;;18.77;81.30;98317.08;1618451;88;28201;-58
2022/07/30 03:40:57;;;;;;;8.60;5.35;;;;;;;18.79;81.12;98318.29;1618596;88;25657;-55
2022/07/30 03:43:25;;;;;;;5.67;5.12;;;;;;;18.77;81.15;98313.70;1618319;88;25726;-62
2022/07/30 03:45:54;;;;;;;5.87;4.90;;;;;;;18.76;81.15;98309.33;1618350;88;25945;-55
2022/07/30 03:48:22;;;;;;;6.05;5.35;;;;;;;18.75;81.19;98307.73;1618743;88;25425;-60
2022/07/30 03:50:51;;;;;;;6.22;5.17;;;;;;;18.80;81.12;98309.38;1618425;88;27461;-53
2022/07/30 03:53:19;;;;;;;51.20;7.47;;;;;;;18.88;81.26;98315.22;1618554;88;25514;-52
2022/07/30 03:55:46;;;;;;;10.28;5.50;;;;;;;18.93;81.02;98320.44;1617343;88;25512;-52
2022/07/30 03:58:12;;;;;;;6.35;4.85;;;;;;;18.94;81.14;98311.50;1615877;88;26726;-53
2022/07/30 04:00:39;;;;;;;7.70;5.45;;;;;;;19.03;80.94;98318.17;1616411;88;25713;-53
2022/07/30 04:03:07;;;;;;;5.53;4.60;;;;;;;19.02;80.90;98313.20;1598171;88;28179;-51
2022/07/30 04:05:33;;;;;;;6.05;5.00;;;;;;;18.98;81.15;98308.78;1616442;88;25952;-54
2022/07/30 04:07:59;;;;;;;8.68;5.12;;;;;;;18.91;81.34;98313.07;1616519;88;25604;-50
2022/07/30 04:10:25;;;;;;;7.03;5.30;;;;;;;18.93;81.41;98311.30;1616293;88;27870;-52
2022/07/30 04:12:51;;;;;;;8.18;5.80;;;;;;;18.95;81.18;98314.52;1618635;87;25936;-53
2022/07/30 04:15:17;;;;;;;6.55;5.67;;;;;;;18.90;81.30;98312.88;1626730;86;28284;-58
2022/07/30 04:17:48;;;;;;;10.63;4.90;;;;;;;18.92;81.26;98323.59;1615486;88;25731;-63
2022/07/30 04:20:25;;;;;;;5.50;4.83;;;;;;;18.91;81.45;98319.23;1615511;88;25750;-59
2022/07/30 04:22:52;;;;;;;5.30;4.75;;;;;;;18.87;81.35;98321.95;1614112;88;26200;-59
2022/07/30 04:25:19;;;;;;;7.03;4.90;;;;;;;18.85;81.34;98318.75;1615269;88;25825;-58
2022/07/30 04:27:47;;;;;;;6.60;5.15;;;;;;;18.83;81.31;98323.90;1615777;88;26936;-63
2022/07/30 04:30:13;;;;;;;7.70;5.30;;;;;;;18.83;81.63;98325.86;1612714;88;25815;-57
2022/07/30 04:32:41;;;;;;;8.00;5.30;;;;;;;18.85;81.30;98331.23;1612102;89;25744;-52
2022/07/30 04:35:08;;;;;;;7.50;5.20;;;;;;;18.94;81.26;98333.14;1612348;89;26241;-54
2022/07/30 04:37:34;;;;;;;7.40;5.28;;;;;;;18.99;81.13;98327.03;1612785;89;25500;-52
2022/07/30 04:40:00;;;;;;;6.30;5.35;;;;;;;18.93;81.17;98316.28;1612125;89;27576;-53
2022/07/30 04:42:28;;;;;;;7.80;5.97;;;;;;;18.96;81.30;98326.40;1612505;89;25883;-53
2022/07/30 04:44:56;;;;;;;6.75;5.45;;;;;;;19.06;81.17;98337.63;1612189;89;25715;-50
2022/07/30 04:47:24;;;;;;;7.25;6.00;;;;;;;19.15;80.97;98329.63;1612520;89;25782;-52
2022/07/30 04:49:52;;;;;;;7.17;5.80;;;;;;;19.05;81.12;98334.66;1611014;89;25704;-52
2022/07/30 04:52:20;;;;;;;9.25;5.87;;;;;;;18.95;81.55;98333.95;1612518;89;27461;-60
2022/07/30 04:54:54;;;;;;;8.43;6.30;;;;;;;18.94;81.64;98341.47;1594273;88;25550;-62
2022/07/30 04:57:22;;;;;;;8.08;5.78;;;;;;;19.04;81.47;98338.62;1612263;88;25712;-59
2022/07/30 04:59:48;;;;;;;9.58;6.03;;;;;;;19.10;81.36;98336.91;1612388;89;26515;-59
2022/07/30 05:02:18;;;;;;;8.98;6.35;;;;;;;19.11;81.36;98330.97;1612317;89;25724;-59
2022/07/30 05:04:46;;;;;;;7.67;6.42;;;;;;;19.24;81.11;98339.86;1612263;89;27520;-59
2022/07/30 05:07:13;;;;;;;7.25;5.85;;;;;;;19.34;80.84;98343.91;1612406;89;25656;-62
2022/07/30 05:09:40;;;;;;;8.13;6.22;;;;;;;19.38;80.68;98337.82;1612247;89;25467;-57
2022/07/30 05:12:07;;;;;;;7.70;6.40;;;;;;;19.46;80.76;98328.16;1608702;88;26604;-62
2022/07/30 05:14:34;;;;;;;8.83;6.85;;;;;;;19.43;80.56;98330.52;1612559;89;25686;-62
2022/07/30 05:17:00;;;;;;;9.08;6.90;;;;;;;19.45;80.81;98328.73;1612133;89;27502;-53
2022/07/30 05:19:26;;;;;;;8.68;6.20;;;;;;;19.38;80.67;98322.54;1612333;89;25640;-54
2022/07/30 05:21:52;;;;;;;8.08;6.80;;;;;;;19.40;80.82;98322.16;1612530;89;25709;-54
2022/07/30 05:24:22;;;;;;;7.30;6.37;;;;;;;19.46;80.69;98323.99;1612172;89;25790;-55
2022/07/30 05:26:49;;;;;;;8.33;6.42;;;;;;;19.49;80.68;98314.89;1612730;89;25804;-56
2022/07/30 05:29:15;;;;;;;9.60;6.83;;;;;;;19.41;80.64;98316.22;1612298;89;28054;-53
2022/07/30 05:31:41;;;;;;;7.65;6.75;;;;;;;19.33;80.81;98317.31;1612254;89;25483;-53
2022/07/30 05:34:08;;;;;;;10.40;6.25;;;;;;;19.33;80.98;98312.34;1611947;89;25709;-55
2022/07/30 05:36:35;;;;;;;8.48;6.33;;;;;;;19.44;81.13;98320.20;1612295;89;26213;-56
2022/07/30 05:39:03;;;;;;;8.40;6.37;;;;;;;19.44;80.84;98311.87;1612389;89;25603;-54
2022/07/30 05:41:29;;;;;;;8.28;6.55;;;;;;;19.39;81.20;98313.59;1612096;89;27609;-56
2022/07/30 05:43:56;;;;;;;8.75;6.78;;;;;;;19.48;81.06;98308.53;1612508;89;25693;-55
2022/07/30 05:46:23;;;;;;;9.08;6.72;;;;;;;19.58;80.77;98309.01;1611818;89;25508;-58
2022/07/30 05:48:50;;;;;;;8.30;6.85;;;;;;;19.71;80.65;98308.92;1612481;89;26178;-58
2022/07/30 05:51:18;;;;;;;7.47;6.70;;;;;;;19.86;80.22;98307.05;1612602;89;25769;-59
2022/07/30 05:53:45;;;;;;;8.30;6.75;;;;;;;19.96;80.05;98311.69;1612567;89;28382;-61
2022/07/30 05:56:11;;;;;;;7.78;6.20;;;;;;;20.01;79.86;98305.78;1610885;88;27056;-61
2022/07/30 05:58:38;;;;;;;10.25;6.67;;;;;;;20.13;79.62;98304.69;1612121;89;25658;-64
2022/07/30 06:01:04;;;;;;;8.90;6.87;;;;;;;20.13;78.97;98311.64;1612681;89;26269;-55
2022/07/30 06:03:33;;;;;;;7.50;6.55;;;;;;;20.12;79.52;98313.62;1612696;89;25640;-53
2022/07/30 06:06:02;;;;;;;8.55;7.10;;;;;;;20.28;79.30;98311.14;1612489;89;27439;-51
2022/07/30 06:08:29;;;;;;;9.38;6.92;;;;;;;20.43;78.95;98312.82;1612468;89;25702;-53
2022/07/30 06:10:55;;;;;;;8.13;5.90;;;;;;;20.53;78.46;98312.66;1611768;89;25648;-52
2022/07/30 06:13:22;;;;;;;7.37;5.83;;;;;;;20.49;78.01;98315.25;1612144;89;26898;-53
2022/07/30 06:15:48;;;;;;;9.88;6.70;;;;;;;20.49;77.83;98311.84;1612720;89;25605;-56
2022/07/30 06:18:15;;;;;;;9.68;6.50;;;;;;;20.49;78.17;98311.07;1612428;89;27984;-59
2022/07/30 06:20:41;;;;;;;9.78;6.67;;;;;;;20.52;78.01;98311.07;1610425;89;25534;-61
2022/07/30 06:23:07;;;;;;;8.88;6.15;;;;;;;20.53;77.97;98306.31;1608838;89;25629;-61
2022/07/30 06:25:34;;;;;;;8.85;6.60;;;;;;;20.47;78.45;98310.06;1612564;89;25632;-64
2022/07/30 06:28:00;;;;;;;7.80;6.67;;;;;;;20.61;78.39;98305.14;1612478;89;25641;-62
2022/07/30 06:30:28;;;;;;;7.65;6.55;;;;;;;20.78;78.06;98304.23;1612021;89;27564;-61
2022/07/30 06:33:00;;;;;;;7.58;6.53;;;;;;;20.92;77.14;98311.27;1612561;89;26080;-61
2022/07/30 06:35:27;;;;;;;9.80;7.12;;;;;;;21.04;77.36;98305.16;1612532;89;25634;-63
2022/07/30 06:37:53;;;;;;;9.78;7.10;;;;;;;20.98;76.72;98290.78;1612420;88;25790;-61
2022/07/30 06:40:21;;;;;;;9.78;7.28;;;;;;;20.95;76.59;98293.58;1612297;89;25628;-62
2022/07/30 06:42:47;;;;;;;7.55;6.70;;;;;;;21.01;77.18;98292.01;1612461;89;27697;-62
2022/07/30 06:45:14;;;;;;;8.40;6.87;;;;;;;21.12;76.65;98285.05;1612444;89;25609;-54
2022/07/30 06:47:41;;;;;;;10.88;6.30;;;;;;;21.06;76.49;98293.00;1612539;89;25733;-54
2022/07/30 06:50:09;;;;;;;7.60;6.20;;;;;;;21.22;77.06;98287.66;1612764;89;26041;-53
2022/07/30 06:52:36;;;;;;;8.23;7.12;;;;;;;21.51;76.17;98286.31;1612469;89;25476;-53
2022/07/30 06:55:04;;;;;;;8.35;7.03;;;;;;;21.73;75.15;98290.50;1612189;89;27595;-54
2022/07/30 06:57:31;;;;;;;8.48;6.33;;;;;;;21.90;74.90;98286.11;1612417;88;25526;-54
2022/07/30 06:59:57;;;;;;;8.88;6.78;;;;;;;22.12;73.74;98282.71;1612528;89;25672;-55
2022/07/30 07:02:24;;;;;;;9.45;6.50;;;;;;;22.31;74.01;98279.29;1612292;89;25772;-56
2022/07/30 07:04:51;;;;;;;8.03;6.22;;;;;;;22.56;73.08;98288.97;1612282;89;25654;-56
2022/07/30 07:07:17;;;;;;;7.47;6.78;;;;;;;22.81;71.83;98288.70;1612505;89;27390;-54
2022/07/30 07:09:44;;;;;;;8.75;6.78;;;;;;;22.94;70.07;98282.84;1612415;89;25718;-54
2022/07/30 07:12:10;;;;;;;9.63;6.35;;;;;;;23.00;71.30;98282.42;1612318;89;25696;-54
2022/07/30 07:14:37;;;;;;;10.00;6.50;;;;;;;23.14;70.53;98272.54;1612091;89;25954;-56
2022/07/30 07:17:04;;;;;;;7.00;6.30;;;;;;;23.30;70.71;98272.64;1608721;89;25704;-64
2022/07/30 07:19:30;;;;;;;10.23;6.62;;;;;;;23.46;70.24;98279.16;1612663;89;27606;-64
2022/07/30 07:21:57;;;;;;;8.50;6.22;;;;;;;23.46;68.11;98283.36;1612335;89;25625;-64
2022/07/30 07:24:24;;;;;;;10.05;6.97;;;;;;;23.65;69.43;98283.98;1612354;89;25684;-64
2022/07/30 07:26:50;;;;;;;7.55;6.75;;;;;;;23.83;68.64;98279.63;1612385;89;25736;-55
2022/07/30 07:29:16;;;;;;;7.80;6.92;;;;;;;23.93;67.21;98271.77;1612693;89;25483;-53
2022/07/30 07:31:43;;;;;;;7.67;6.70;;;;;;;23.91;67.34;98274.17;1612245;89;27517;-56
2022/07/30 07:34:09;;;;;;;8.43;7.35;;;;;;;24.01;67.54;98273.09;1611934;89;25676;-55
2022/07/30 07:36:36;;;;;;;8.15;7.17;;;;;;;24.17;67.12;98273.34;1612011;89;25536;-55
2022/07/30 07:39:08;;;;;;;8.23;6.80;;;;;;;24.32;66.74;98271.78;1612655;89;25742;-63
2022/07/30 07:41:31;;;;;;;12.37;7.47;;;;;;;24.39;66.01;98270.91;1611734;88;25658;-61
2022/07/30 07:43:58;;;;;;;7.67;6.87;;;;;;;24.52;65.74;98270.55;1612631;89;28191;-59
2022/07/30 07:46:24;;;;;;;8.63;7.72;;;;;;;24.67;64.88;98268.98;1612206;89;25724;-61
2022/07/30 07:48:51;;;;;;;9.65;7.05;;;;;;;24.80;64.78;98265.81;1612582;89;25511;-62
2022/07/30 07:51:19;;;;;;;9.03;7.58;;;;;;;24.96;64.24;98265.03;1612533;89;25755;-56
2022/07/30 07:53:45;;;;;;;7.00;6.30;;;;;;;24.99;62.41;98262.78;1612308;89;25471;-63
2022/07/30 07:56:12;;;;;;;7.62;6.25;;;;;;;24.90;62.54;98264.09;1612242;88;27643;-63
2022/07/30 07:58:40;;;;;;;8.50;7.53;;;;;;;24.83;62.46;98258.56;1612379;89;25470;-65
2022/07/30 08:01:06;;;;;;;9.70;7.83;;;;;;;24.79;62.69;98266.23;1612292;89;25519;-65
2022/07/30 08:03:33;;;;;;;11.85;7.85;;;;;;;24.76;63.49;98265.07;1612123;89;25760;-63
2022/07/30 08:06:00;;;;;;;8.50;7.65;;;;;;;24.80;62.94;98263.61;1612071;89;25641;-62
2022/07/30 08:08:26;;;;;;;9.85;7.65;;;;;;;24.85;62.01;98263.74;1612494;89;27632;-63
2022/07/30 08:10:52;;;;;;;10.05;8.38;;;;;;;24.78;62.27;98264.02;1612245;89;25669;-57
2022/07/30 08:13:19;;;;;;;11.83;8.08;;;;;;;24.75;62.37;98265.48;1608629;89;25706;-56
2022/07/30 08:15:45;;;;;;;8.68;7.53;;;;;;;24.85;63.35;98255.34;1612287;89;25823;-54
2022/07/30 08:18:11;;;;;;;9.53;7.45;;;;;;;25.06;62.40;98259.88;1612415;89;25498;-56
2022/07/30 08:20:38;;;;;;;8.10;7.20;;;;;;;25.26;62.28;98258.58;1612253;89;28316;-56
2022/07/30 08:23:06;;;;;;;9.50;8.15;;;;;;;25.44;61.36;98250.48;1612073;89;25484;-56
2022/07/30 08:25:33;;;;;;;7.75;6.97;;;;;;;25.49;61.29;98252.81;1612378;89;25526;-56
2022/07/30 08:28:09;;;;;;;9.80;7.80;;;;;;;25.85;61.15;98251.45;1612825;89;25846;-56
2022/07/30 08:30:40;;;;;;;9.33;7.62;;;;;;;26.35;59.74;98253.75;1612016;88;25701;-58
2022/07/30 08:33:07;;;;;;;8.60;6.65;;;;;;;26.68;59.44;98246.24;1612177;89;27037;-60
2022/07/30 08:35:33;;;;;;;9.93;7.20;;;;;;;27.14;59.33;98237.23;1611765;89;25511;-57
2022/07/30 08:37:59;;;;;;;6.30;5.70;;;;;;;27.28;57.32;98235.30;1612602;89;25495;-57
2022/07/30 08:40:26;;;;;;;7.37;6.53;;;;;;;27.29;56.33;98245.34;1612237;89;25772;-57
2022/07/30 08:42:53;;;;;;;8.70;6.35;;;;;;;27.02;56.91;98233.69;1612283;89;25645;-56
2022/07/30 08:45:21;;;;;;;9.48;6.62;;;;;;;27.19;57.07;98242.95;1612300;89;27490;-56
2022/07/30 08:47:50;;;;;;;7.47;6.65;;;;;;;27.58;55.92;98244.63;1612492;89;25514;-65
2022/07/30 08:50:17;;;;;;;9.78;6.53;;;;;;;27.99;55.77;98238.78;1612532;89;25523;-62
2022/07/30 08:52:45;;;;;;;8.83;6.22;;;;;;;28.18;53.77;98241.30;1612001;89;25735;-58
2022/07/30 08:55:11;;;;;;;8.18;6.33;;;;;;;28.18;52.85;98237.08;1611785;89;25667;-57
2022/07/30 08:57:37;;;;;;;8.50;6.45;;;;;;;28.12;53.13;98236.03;1612116;88;27461;-57
2022/07/30 09:00:07;;;;;;;8.55;6.33;;;;;;;28.41;53.62;98226.80;1612514;89;25634;-56
2022/07/30 09:02:34;;;;;;;7.58;5.67;;;;;;;28.81;52.38;98232.66;1612695;89;25543;-64
2022/07/30 09:05:00;;;;;;;6.60;5.58;;;;;;;29.19;51.74;98229.72;1612479;89;25714;-65
2022/07/30 09:07:27;;;;;;;6.15;5.28;;;;;;;29.52;52.60;98227.23;1612183;89;25638;-59
2022/07/30 09:09:53;;;;;;;8.38;6.05;;;;;;;29.83;50.91;98218.77;1612187;89;27433;-64
2022/07/30 09:12:33;;;;;;;9.35;5.95;;;;;;;30.00;49.93;98223.02;1593829;89;25767;-63
2022/07/30 09:15:18;;;;;;;6.60;5.80;;;;;;;30.01;50.78;98225.19;1612639;89;25700;-62
2022/07/30 09:18:01;;;;;;;9.15;6.67;;;;;;;29.98;50.95;98223.28;1612356;89;25737;-65
2022/07/30 09:20:33;;;;;;;9.18;5.92;;;;;;;29.84;50.76;98227.42;1612158;89;25640;-64
2022/07/30 09:23:03;;;;;;;8.08;5.83;;;;;;;29.55;50.48;98224.30;1612558;89;27453;-62
2022/07/30 09:25:36;;;;;;;;;;;;;;;29.48;50.90;98224.55;1614835;89;25719;-65
2022/07/30 09:28:03;;;;;;;7.70;5.62;;;;;;;29.31;51.39;98229.53;1612156;89;25660;-65
2022/07/30 09:30:52;;;;;;;6.87;5.20;;;;;;;28.93;51.40;98224.05;1612777;89;25722;-65
2022/07/30 09:33:35;;;;;;;6.90;5.28;;;;;;;28.90;52.60;98229.95;1611939;88;25793;-65
2022/07/30 09:36:06;;;;;;;6.78;5.28;;;;;;;28.85;51.54;98226.91;1612217;89;28307;-61
2022/07/30 09:38:46;;;;;;;5.92;5.33;;;;;;;28.81;51.94;98227.81;1611268;89;25499;-56
2022/07/30 09:41:16;;;;;;;9.33;6.22;;;;;;;28.76;52.29;98228.39;1612727;89;25710;-56
2022/07/30 09:43:48;;;;;;;6.65;5.30;;;;;;;28.51;52.47;98223.48;1612085;88;25717;-56
2022/07/30 09:46:16;;;;;;;5.92;5.30;;;;;;;28.58;53.15;98224.67;1612566;87;25692;-57
2022/07/30 09:48:47;;;;;;;7.60;5.42;;;;;;;28.66;53.03;98217.59;1612819;89;27343;-57
2022/07/30 09:51:14;;;;;;;6.47;5.72;;;;;;;28.79;52.29;98220.44;1612033;89;25701;-57
2022/07/30 09:54:00;;;;;;;6.05;5.40;;;;;;;28.87;52.06;98218.16;1612094;89;25745;-56
2022/07/30 09:56:28;;;;;;;5.83;5.22;;;;;;;28.93;51.77;98213.55;1612181;88;25751;-62
2022/07/30 09:58:56;;;;;;;7.05;5.87;;;;;;;29.12;51.81;98215.22;1612738;89;25638;-58
2022/07/30 10:01:22;;;;;;;6.58;5.90;;;;;;;29.12;51.66;98210.19;1631381;86;27383;-57
2022/07/30 10:03:50;;;;;;;6.85;6.10;;;;;;;28.97;51.53;98209.86;1636749;87;25767;-58
2022/07/30 10:06:17;;;;;;;7.42;6.22;;;;;;;28.81;51.62;98213.72;1637784;87;25684;-56
2022/07/30 10:08:51;;;;;;;6.60;5.87;;;;;;;28.51;51.67;98216.44;1638029;87;25598;-57
2022/07/30 10:11:23;;;;;;;6.28;5.67;;;;;;;28.32;52.11;98217.58;1637676;87;25665;-57
2022/07/30 10:13:54;;;;;;;6.58;5.97;;;;;;;28.25;52.59;98219.97;1637699;87;27595;-56
2022/07/30 10:16:22;;;;;;;5.87;5.37;;;;;;;28.09;52.13;98217.98;1635421;87;25512;-57
2022/07/30 10:18:49;;;;;;;6.20;5.62;;;;;;;27.82;51.74;98219.11;1620205;87;25759;-57
2022/07/30 10:21:16;;;;;;;5.80;5.10;;;;;;;27.46;53.12;98220.02;1634459;87;25736;-56
2022/07/30 10:23:43;;;;;;;5.80;4.75;;;;;;;27.42;53.12;98217.28;1637926;87;25698;-57
2022/07/30 10:26:10;;;;;;;9.68;8.00;;;;;;;27.28;52.85;98217.02;1637549;87;27387;-62
2022/07/30 10:28:39;;;;;;;6.60;5.95;;;;;;;27.17;52.58;98218.70;1637645;87;25629;-59
2022/07/30 10:31:06;;;;;;;17.52;6.70;;;;;;;26.99;52.33;98233.16;1637679;87;25460;-58
2022/07/30 10:33:33;;;;;;;9.60;6.75;;;;;;;26.83;53.33;98233.30;1637573;87;25792;-56
2022/07/30 10:36:00;;;;;;;9.75;7.37;;;;;;;26.74;53.67;98236.68;1637712;87;25700;-65
2022/07/30 10:38:33;;;;;;;9.73;7.17;;;;;;;26.54;54.18;98240.31;1637833;87;27598;-65
2022/07/30 10:41:23;;;;;;;7.53;6.83;;;;;;;26.24;55.57;98235.67;1637861;87;25783;-65
2022/07/30 10:44:10;;;;;;;11.38;8.10;;;;;;;25.92;55.88;98237.88;1637827;87;25443;-61
2022/07/30 10:47:05;;;;;;;13.18;9.53;;;;;;;25.74;58.00;98247.43;1637343;87;26535;-63
2022/07/30 10:49:32;;;;;;;12.53;9.30;;;;;;;25.33;59.15;98257.69;1637731;87;25696;-56
2022/07/30 10:52:00;;;;;;;14.15;9.90;;;;;;;24.98;61.46;98260.58;1637225;87;27269;-56
2022/07/30 10:54:44;;;;;;;14.25;10.45;;;;;;;24.72;62.44;98256.52;1636517;87;25616;-56
2022/07/30 10:57:17;;;;;;;12.05;9.48;;;;;;;24.44;63.49;98257.23;1638984;87;25503;-56
2022/07/30 10:59:56;;;;;;;10.53;9.33;;;;;;;24.10;64.79;98260.80;1642820;86;25751;-56
2022/07/30 11:02:25;;;;;;;11.25;9.70;;;;;;;23.73;65.46;98257.56;1641892;86;25640;-59
2022/07/30 11:05:19;;;;;;;11.05;9.50;;;;;;;23.40;66.70;98249.42;1641785;87;27400;-57
2022/07/30 11:07:46;;;;;;;12.88;11.12;;;;;;;23.13;66.92;98241.61;1641940;86;25707;-57
2022/07/30 11:10:40;;;;;;;14.23;11.18;;;;;;;22.85;68.53;98245.39;1642012;86;25503;-57
2022/07/30 11:13:06;;;;;;;12.85;10.70;;;;;;;22.70;69.92;98245.45;1597050;89;25790;-56
2022/07/30 11:16:00;;;;;;;13.98;12.10;;;;;;;22.49;70.55;98243.52;1598477;89;25559;-57
2022/07/30 11:18:27;;;;;;;14.53;12.20;;;;;;;22.31;71.13;98241.61;1598512;89;27500;-57
2022/07/30 11:21:16;;;;;;;14.75;12.25;;;;;;;22.21;72.84;98238.23;1598657;89;25658;-59
2022/07/30 11:23:44;;;;;;;16.15;11.73;;;;;;;22.09;72.64;98245.04;1598735;89;25843;-59
2022/07/30 11:26:32;;;;;;;12.50;11.20;;;;;;;21.96;73.73;98250.27;1595192;89;25695;-59
2022/07/30 11:28:58;;;;;;;10.63;9.53;;;;;;;21.82;73.45;98250.49;1597852;89;25733;-59
2022/07/30 11:31:30;;;;;;;13.80;11.53;;;;;;;21.62;75.38;98247.28;1598723;89;27603;-59
2022/07/30 11:34:24;;;;;;;15.03;11.68;;;;;;;21.50;74.84;98251.27;1598325;89;25533;-59
2022/07/30 11:37:15;;;;;;;16.77;11.70;;;;;;;21.37;75.28;98250.27;1598353;89;25669;-59
2022/07/30 11:39:58;;;;;;;15.23;12.35;;;;;;;21.33;75.69;98244.49;1598679;89;26474;-58
2022/07/30 11:42:31;;;;;;;15.13;12.63;;;;;;;21.26;76.15;98246.66;1599010;89;25817;-59
2022/07/30 11:45:22;;;;;;;15.25;12.70;;;;;;;21.19;76.84;98252.42;1598660;89;28206;-59